Time;durP1;ratioP1;P1;durP2;ratioP2;P2;SDS_P1;SDS_P2;PMS_P1;PMS_P2;Temp;Humidity;BMP_temperature;BMP_pressure;BME280_temperature;BME280_humidity;BME280_pressure;Samples;Min_cycle;Max_cycle;Signal;HPM_P1;HPM_P2
2021/07/03 00:25:26;;;;;;;5.93;5.32;;;;;;;;;;10637589;27;20053;-85
2021/07/03 01:39:07;;;;;;;5.80;5.30;;;;;;;;;;10666109;27;20465;-85
2021/07/03 02:47:03;;;;;;;8.03;6.07;;;;;;;;;;10635787;27;20051;-87
2021/07/03 03:32:00;;;;;;;7.40;6.70;;;;;;;;;;10644216;22;20043;-87
2021/07/03 03:37:01;;;;;;;7.00;6.40;;;;;;;;;;10619225;27;20123;-88
2021/07/03 03:42:03;;;;;;;6.85;6.15;;;;;;;;;;10616823;27;20043;-87
2021/07/03 03:47:04;;;;;;;5.47;4.97;;;;;;;;;;10616588;27;20069;-87
2021/07/03 03:52:05;;;;;;;6.68;6.07;;;;;;;;;;10635848;27;20035;-88
2021/07/03 03:57:29;;;;;;;8.23;6.05;;;;;;;;;;10616329;27;20503;-88
2021/07/03 04:02:30;;;;;;;8.18;5.95;;;;;;;;;;10616620;27;20118;-88
2021/07/03 04:07:31;;;;;;;7.10;6.40;;;;;;;;;;10624293;27;20056;-87
2021/07/03 04:12:32;;;;;;;7.22;6.05;;;;;;;;;;10639966;27;20121;-87
2021/07/03 04:17:33;;;;;;;7.25;6.57;;;;;;;;;;10617511;27;20023;-88
2021/07/03 04:22:34;;;;;;;9.32;8.43;;;;;;;;;;10615860;27;20023;-89
2021/07/03 04:27:36;;;;;;;6.78;6.10;;;;;;;;;;10615753;27;20404;-88
2021/07/03 04:32:37;;;;;;;6.40;5.80;;;;;;;;;;10615271;27;20031;-88
2021/07/03 04:37:39;;;;;;;6.80;6.20;;;;;;;;;;10614194;27;20117;-89
2021/07/03 04:42:40;;;;;;;12.23;11.02;;;;;;;;;;10615510;27;20038;-89
2021/07/03 04:47:41;;;;;;;9.50;7.90;;;;;;;;;;10632134;27;20053;-88
2021/07/03 04:52:42;;;;;;;8.13;7.40;;;;;;;;;;10613778;27;20023;-88
2021/07/03 04:57:43;;;;;;;8.48;7.45;;;;;;;;;;10613962;27;20019;-88
2021/07/03 05:02:44;;;;;;;8.43;7.63;;;;;;;;;;10614173;27;20034;-88
2021/07/03 05:07:45;;;;;;;11.15;10.05;;;;;;;;;;10638406;27;20023;-88
2021/07/03 05:12:45;;;;;;;7.57;6.97;;;;;;;;;;10622683;27;20031;-88
2021/07/03 05:17:46;;;;;;;9.57;8.65;;;;;;;;;;10615680;27;20027;-88
2021/07/03 05:22:47;;;;;;;9.30;8.25;;;;;;;;;;10645212;27;20065;-88
2021/07/03 05:27:48;;;;;;;9.57;8.57;;;;;;;;;;10615142;27;20116;-88
2021/07/03 05:32:49;;;;;;;9.95;9.00;;;;;;;;;;10614891;27;20452;-87
2021/07/03 05:37:50;;;;;;;15.60;13.93;;;;;;;;;;10613164;27;20022;-88
2021/07/03 05:42:51;;;;;;;9.20;8.25;;;;;;;;;;10615094;27;20031;-87
2021/07/03 05:47:52;;;;;;;13.65;12.27;;;;;;;;;;10614547;27;20535;-88
2021/07/03 05:52:53;;;;;;;10.85;9.80;;;;;;;;;;10614334;27;20389;-88
2021/07/03 05:57:54;;;;;;;14.10;10.93;;;;;;;;;;10614283;27;20464;-88
2021/07/03 06:02:58;;;;;;;30.50;16.05;;;;;;;;;;10614632;27;20027;-89
2021/07/03 06:07:59;;;;;;;15.25;13.68;;;;;;;;;;10613678;28;20106;-89
2021/07/03 06:13:00;;;;;;;8.27;7.47;;;;;;;;;;10615749;28;20062;-89
2021/07/03 06:18:01;;;;;;;8.30;7.50;;;;;;;;;;10616859;27;20030;-89
2021/07/03 06:23:02;;;;;;;14.75;13.13;;;;;;;;;;10626214;27;20023;-90
2021/07/03 06:28:04;;;;;;;11.27;10.18;;;;;;;;;;10624626;27;20035;-89
2021/07/03 06:33:05;;;;;;;8.13;7.32;;;;;;;;;;10629718;27;20060;-89
2021/07/03 06:38:06;;;;;;;11.00;9.90;;;;;;;;;;10624923;27;20035;-89
2021/07/03 06:43:07;;;;;;;15.93;14.23;;;;;;;;;;10629096;27;20070;-90
2021/07/03 06:48:08;;;;;;;10.32;9.23;;;;;;;;;;10624786;27;20049;-89
2021/07/03 06:53:09;;;;;;;13.93;12.55;;;;;;;;;;10624993;27;20020;-89
2021/07/03 06:58:10;;;;;;;10.80;9.80;;;;;;;;;;10626025;27;20027;-89
2021/07/03 07:03:11;;;;;;;9.93;8.93;;;;;;;;;;10631017;27;20023;-85
2021/07/03 07:08:12;;;;;;;11.52;10.40;;;;;;;;;;10645032;27;20405;-87
2021/07/03 07:13:13;;;;;;;11.05;9.50;;;;;;;;;;10644725;27;20031;-86
2021/07/03 07:18:14;;;;;;;14.32;12.68;;;;;;;;;;10628291;27;20015;-86
2021/07/03 07:23:15;;;;;;;12.25;10.95;;;;;;;;;;10631135;27;20027;-86
2021/07/03 07:28:16;;;;;;;11.95;10.75;;;;;;;;;;10629521;27;20023;-86
2021/07/03 07:33:17;;;;;;;14.38;12.70;;;;;;;;;;10626282;27;20080;-86
2021/07/03 07:38:18;;;;;;;14.45;12.95;;;;;;;;;;10622474;27;20373;-86
2021/07/03 07:43:19;;;;;;;16.13;14.43;;;;;;;;;;10624077;27;20072;-88
2021/07/03 07:48:23;;;;;;;13.27;11.68;;;;;;;;;;10624404;27;20055;-86
2021/07/03 07:53:24;;;;;;;16.83;13.45;;;;;;;;;;10624993;27;20031;-86
2021/07/03 07:58:26;;;;;;;14.80;12.10;;;;;;;;;;10625642;27;20385;-86
2021/07/03 08:03:32;;;;;;;12.73;10.00;;;;;;;;;;10625974;27;20132;-85
2021/07/03 08:08:33;;;;;;;12.25;10.95;;;;;;;;;;10628357;27;20261;-86
2021/07/03 08:19:40;;;;;;;13.48;12.07;;;;;;;;;;10463340;27;20031;-85
2021/07/03 08:25:01;;;;;;;15.60;13.30;;;;;;;;;;10587674;27;20416;-85
2021/07/03 08:30:03;;;;;;;10.65;9.10;;;;;;;;;;10620802;27;20208;-85
2021/07/03 08:35:05;;;;;;;12.88;11.45;;;;;;;;;;10624701;27;20019;-85
2021/07/03 08:40:07;;;;;;;12.40;10.98;;;;;;;;;;10623103;27;20054;-85
2021/07/03 08:45:08;;;;;;;13.68;12.25;;;;;;;;;;10647272;27;20086;-85
2021/07/03 08:50:11;;;;;;;13.68;12.25;;;;;;;;;;10647896;27;20022;-86
2021/07/03 08:55:14;;;;;;;14.35;12.88;;;;;;;;;;10626875;27;20027;-85
2021/07/03 09:00:20;;;;;;;12.90;10.93;;;;;;;;;;10621265;27;20042;-86
2021/07/03 09:05:26;;;;;;;10.30;9.30;;;;;;;;;;10638786;27;20111;-85
2021/07/03 09:10:27;;;;;;;11.88;9.93;;;;;;;;;;10621742;27;20027;-85
2021/07/03 09:15:30;;;;;;;13.00;10.05;;;;;;;;;;10624627;27;20532;-86
2021/07/03 09:21:01;;;;;;;10.48;9.07;;;;;;;;;;10606687;27;20469;-86
2021/07/03 09:26:04;;;;;;;11.50;10.32;;;;;;;;;;10599056;27;20135;-86
2021/07/03 09:31:08;;;;;;;11.60;8.82;;;;;;;;;;10621525;27;20501;-85
2021/07/03 09:36:32;;;;;;;11.75;9.57;;;;;;;;;;10641516;27;20465;-86
2021/07/03 09:41:34;;;;;;;10.35;8.85;;;;;;;;;;10619341;27;20020;-86
2021/07/03 09:46:36;;;;;;;10.10;8.02;;;;;;;;;;10620219;27;20170;-86
2021/07/03 09:51:56;;;;;;;11.43;10.27;;;;;;;;;;10617774;27;20019;-86
2021/07/03 09:56:59;;;;;;;11.48;8.95;;;;;;;;;;10617620;27;20026;-85
2021/07/03 10:02:00;;;;;;;11.38;9.20;;;;;;;;;;10618127;27;20210;-86
2021/07/03 10:07:51;;;;;;;11.00;9.20;;;;;;;;;;10637266;27;20045;-86
2021/07/03 10:12:57;;;;;;;9.82;8.38;;;;;;;;;;10616226;28;20519;-86
2021/07/03 10:18:16;;;;;;;11.00;9.95;;;;;;;;;;10615804;28;20051;-87
2021/07/03 10:23:17;;;;;;;9.00;8.10;;;;;;;;;;10620779;28;20482;-84
2021/07/03 10:28:29;;;;;;;8.27;7.13;;;;;;;;;;10617223;28;20045;-86
2021/07/03 10:33:40;;;;;;;9.40;7.65;;;;;;;;;;10619468;28;20035;-85
2021/07/03 10:38:42;;;;;;;9.25;7.82;;;;;;;;;;10618297;28;20023;-85
2021/07/03 10:43:46;;;;;;;7.15;6.32;;;;;;;;;;10616416;28;20091;-86
2021/07/03 10:48:54;;;;;;;7.18;6.43;;;;;;;;;;10616116;28;20054;-87
2021/07/03 10:54:05;;;;;;;9.63;8.65;;;;;;;;;;10617690;28;20068;-86
2021/07/03 10:59:10;;;;;;;12.10;10.60;;;;;;;;;;10619190;28;20426;-86
2021/07/03 11:04:34;;;;;;;8.27;7.47;;;;;;;;;;10617596;27;20404;-86
2021/07/03 11:09:48;;;;;;;7.63;6.72;;;;;;;;;;10624078;27;20155;-85
2021/07/03 11:14:53;;;;;;;7.38;6.65;;;;;;;;;;10621889;27;20023;-85
2021/07/03 11:19:55;;;;;;;7.38;6.10;;;;;;;;;;10630328;27;20132;-85
2021/07/03 11:24:57;;;;;;;9.60;8.50;;;;;;;;;;10627101;27;20081;-87
2021/07/03 11:30:04;;;;;;;6.75;6.15;;;;;;;;;;10622882;27;20035;-86
2021/07/03 11:35:06;;;;;;;7.53;6.78;;;;;;;;;;10623583;27;20430;-86
2021/07/03 11:40:09;;;;;;;6.85;6.10;;;;;;;;;;10628483;27;20043;-89
2021/07/03 11:45:11;;;;;;;7.70;6.90;;;;;;;;;;10626192;27;20044;-85
2021/07/03 11:50:26;;;;;;;6.95;6.22;;;;;;;;;;10627633;27;20019;-87
2021/07/03 11:55:45;;;;;;;8.45;6.68;;;;;;;;;;10622709;27;20117;-87
2021/07/03 12:01:07;;;;;;;8.00;7.20;;;;;;;;;;10642570;27;20015;-87
2021/07/03 12:06:20;;;;;;;38.03;34.67;;;;;;;;;;10630935;27;20118;-87
2021/07/03 12:17:24;;;;;;;7.57;6.88;;;;;;;;;;10574087;28;20040;-85
2021/07/03 12:22:26;;;;;;;10.38;9.48;;;;;;;;;;10572568;28;20046;-84
2021/07/03 12:27:27;;;;;;;30.13;27.60;;;;;;;;;;10561179;28;20050;-86
2021/07/03 12:32:29;;;;;;;9.80;8.10;;;;;;;;;;10569735;28;20028;-86
2021/07/03 12:37:30;;;;;;;7.10;6.50;;;;;;;;;;10551553;28;20024;-85
2021/07/03 12:42:34;;;;;;;6.72;6.13;;;;;;;;;;10550360;28;20063;-84
2021/07/03 12:47:38;;;;;;;7.03;6.43;;;;;;;;;;10549694;28;20020;-84
2021/07/03 12:52:41;;;;;;;6.13;5.55;;;;;;;;;;10551607;28;20035;-84
2021/07/03 12:57:46;;;;;;;6.55;5.93;;;;;;;;;;10550839;28;20056;-84
2021/07/03 13:02:47;;;;;;;6.82;6.22;;;;;;;;;;10551503;28;20389;-84
2021/07/03 13:07:48;;;;;;;10.80;9.90;;;;;;;;;;10550718;28;20020;-86
2021/07/03 13:12:49;;;;;;;6.35;5.68;;;;;;;;;;10549642;28;20434;-84
2021/07/03 13:17:50;;;;;;;6.20;5.70;;;;;;;;;;10553930;28;20054;-85
2021/07/03 13:22:51;;;;;;;6.40;5.80;;;;;;;;;;10550023;28;20036;-86
2021/07/03 13:27:52;;;;;;;6.95;6.20;;;;;;;;;;10553987;28;20024;-86
2021/07/03 13:32:53;;;;;;;6.25;5.65;;;;;;;;;;10550352;28;20046;-84
2021/07/03 13:37:54;;;;;;;7.00;6.15;;;;;;;;;;10549500;28;20028;-85
2021/07/03 13:42:55;;;;;;;7.10;6.28;;;;;;;;;;10553809;28;20051;-85
2021/07/03 13:47:56;;;;;;;5.95;5.45;;;;;;;;;;10549455;28;20038;-84
2021/07/03 13:52:57;;;;;;;6.45;5.95;;;;;;;;;;10548877;28;20444;-84
2021/07/03 13:58:00;;;;;;;7.38;6.18;;;;;;;;;;10551713;28;20386;-85
2021/07/03 14:03:01;;;;;;;6.85;6.15;;;;;;;;;;10547566;28;20028;-86
2021/07/03 14:08:03;;;;;;;6.72;6.13;;;;;;;;;;10547147;28;20019;-85
2021/07/03 14:13:04;;;;;;;6.85;6.20;;;;;;;;;;10547302;28;20059;-86
2021/07/03 14:18:09;;;;;;;6.68;6.07;;;;;;;;;;10547696;28;20413;-85
2021/07/03 14:23:10;;;;;;;9.18;6.80;;;;;;;;;;10547582;28;20043;-85
2021/07/03 14:28:11;;;;;;;7.00;6.30;;;;;;;;;;10547749;28;20024;-86
2021/07/03 14:33:12;;;;;;;8.32;7.38;;;;;;;;;;10547789;28;20024;-86
2021/07/03 14:38:19;;;;;;;7.13;6.18;;;;;;;;;;10546846;28;20066;-86
2021/07/03 14:43:20;;;;;;;6.55;5.97;;;;;;;;;;10553865;28;20377;-86
2021/07/03 14:48:21;;;;;;;8.43;7.00;;;;;;;;;;10556766;28;20028;-85
2021/07/03 14:53:23;;;;;;;6.65;6.00;;;;;;;;;;10554308;28;20024;-86
2021/07/03 14:58:24;;;;;;;7.25;5.80;;;;;;;;;;10556204;28;20023;-86
2021/07/03 15:03:25;;;;;;;6.60;5.90;;;;;;;;;;10554009;28;20082;-85
2021/07/03 15:08:26;;;;;;;7.45;6.65;;;;;;;;;;10556423;28;20045;-85
2021/07/03 15:13:27;;;;;;;6.47;5.25;;;;;;;;;;10557444;28;20035;-86
2021/07/03 15:18:30;;;;;;;6.63;6.03;;;;;;;;;;10556801;28;20453;-87
2021/07/03 15:23:35;;;;;;;5.53;4.93;;;;;;;;;;10573193;28;20025;-85
2021/07/03 15:28:36;;;;;;;5.10;4.60;;;;;;;;;;10555697;28;20047;-85
2021/07/03 15:33:44;;;;;;;5.43;4.93;;;;;;;;;;10559921;28;20032;-84
2021/07/03 15:38:45;;;;;;;5.63;5.05;;;;;;;;;;10581889;28;20024;-85
2021/07/03 15:43:46;;;;;;;7.20;5.15;;;;;;;;;;10587622;28;20020;-85
2021/07/03 15:48:49;;;;;;;6.25;4.97;;;;;;;;;;10570366;28;20381;-85
2021/07/03 15:53:50;;;;;;;7.38;6.68;;;;;;;;;;10551942;28;20035;-86
2021/07/03 15:58:51;;;;;;;6.50;5.43;;;;;;;;;;10553231;28;20081;-86
2021/07/03 16:03:52;;;;;;;6.13;5.38;;;;;;;;;;10552263;28;20347;-86
2021/07/03 16:08:53;;;;;;;6.38;5.05;;;;;;;;;;10554235;28;20091;-86
2021/07/03 16:13:54;;;;;;;6.93;5.60;;;;;;;;;;10552499;28;20031;-85
2021/07/03 16:18:57;;;;;;;6.55;5.63;;;;;;;;;;10560078;28;20024;-84
2021/07/03 16:24:04;;;;;;;5.97;5.15;;;;;;;;;;10561015;28;20123;-84
2021/07/03 16:29:05;;;;;;;6.15;4.72;;;;;;;;;;10560531;28;20111;-83
2021/07/03 16:34:37;;;;;;;6.50;5.50;;;;;;;;;;10559694;28;20513;-84
2021/07/03 16:39:37;;;;;;;5.35;4.95;;;;;;;;;;10559605;28;20125;-86
2021/07/03 16:44:41;;;;;;;4.32;3.60;;;;;;;;;;10556801;28;20466;-84
2021/07/03 16:49:42;;;;;;;4.13;3.72;;;;;;;;;;10554800;28;20024;-85
2021/07/03 16:54:43;;;;;;;3.47;3.17;;;;;;;;;;10551682;28;20024;-85
2021/07/03 16:59:44;;;;;;;3.78;3.25;;;;;;;;;;10551510;28;20027;-86
2021/07/03 17:04:44;;;;;;;3.35;3.03;;;;;;;;;;10550245;28;20039;-85
2021/07/03 17:09:46;;;;;;;3.10;2.80;;;;;;;;;;10551373;28;20024;-85
2021/07/03 17:14:46;;;;;;;4.05;2.85;;;;;;;;;;10550208;28;20528;-85
2021/07/03 17:19:48;;;;;;;3.40;3.10;;;;;;;;;;10551111;28;20028;-86
2021/07/03 17:24:49;;;;;;;3.17;2.88;;;;;;;;;;10550032;28;20031;-85
2021/07/03 17:29:50;;;;;;;7.38;3.13;;;;;;;;;;10549779;28;20023;-86
2021/07/03 17:34:51;;;;;;;3.90;3.50;;;;;;;;;;10549699;28;20055;-85
2021/07/03 17:39:52;;;;;;;3.33;3.03;;;;;;;;;;10549057;28;20429;-85
2021/07/03 17:44:53;;;;;;;4.75;3.03;;;;;;;;;;10550344;28;20072;-86
2021/07/03 17:49:54;;;;;;;3.53;3.22;;;;;;;;;;10548695;28;20049;-86
2021/07/03 17:54:55;;;;;;;7.80;3.42;;;;;;;;;;10548775;28;20043;-86
2021/07/03 17:59:56;;;;;;;3.75;3.20;;;;;;;;;;10546458;28;20573;-85
2021/07/03 18:04:57;;;;;;;3.97;3.58;;;;;;;;;;10548761;28;20024;-86
2021/07/03 18:09:57;;;;;;;3.80;3.50;;;;;;;;;;10545553;28;20020;-85
2021/07/03 18:15:00;;;;;;;3.30;3.00;;;;;;;;;;10545928;28;20032;-86
2021/07/03 18:20:05;;;;;;;4.38;3.67;;;;;;;;;;10544773;28;20046;-87
2021/07/03 18:42:55;;;;;;;3.45;3.13;;;;;;;;;;10475024;28;20041;-87
2021/07/03 18:48:24;;;;;;;3.10;2.80;;;;;;;;;;10470035;28;20029;-88
2021/07/03 18:59:46;;;;;;;3.30;3.00;;;;;;;;;;10525173;28;20032;-87
2021/07/03 19:04:56;;;;;;;3.60;3.13;;;;;;;;;;10579007;28;20273;-87
2021/07/03 19:10:23;;;;;;;3.95;3.40;;;;;;;;;;10579250;28;20106;-88
2021/07/03 19:20:49;;;;;;;3.30;2.95;;;;;;;;;;10604195;28;19903;-86
2021/07/03 19:26:29;;;;;;;4.15;3.55;;;;;;;;;;10609836;28;20087;-87
2021/07/03 19:31:33;;;;;;;4.13;3.72;;;;;;;;;;10490563;28;20031;-87
2021/07/03 19:37:05;;;;;;;3.67;3.35;;;;;;;;;;10599140;28;20047;-84
2021/07/03 19:42:11;;;;;;;3.50;3.20;;;;;;;;;;10576484;28;20480;-87
2021/07/03 19:53:03;;;;;;;3.50;3.20;;;;;;;;;;10611983;28;20043;-87
2021/07/03 19:58:52;;;;;;;4.63;3.65;;;;;;;;;;10594327;28;20023;-86
2021/07/03 20:04:12;;;;;;;5.18;4.70;;;;;;;;;;10588367;28;20027;-86
2021/07/03 20:09:53;;;;;;;3.85;3.42;;;;;;;;;;10592284;28;20024;-85
2021/07/03 20:26:57;;;;;;;4.40;3.50;;;;;;;;;;10471475;28;20033;-86
2021/07/03 20:49:11;;;;;;;3.65;3.30;;;;;;;;;;10610937;28;20031;-85
2021/07/03 20:54:12;;;;;;;5.63;3.40;;;;;;;;;;10592316;28;20095;-85
2021/07/03 20:59:13;;;;;;;4.38;3.97;;;;;;;;;;10595070;28;20031;-85
2021/07/03 21:04:14;;;;;;;4.63;4.22;;;;;;;;;;10607977;28;20016;-85
2021/07/03 21:09:15;;;;;;;5.32;4.82;;;;;;;;;;10615610;28;20026;-85
2021/07/03 21:14:20;;;;;;;3.97;3.58;;;;;;;;;;10599903;28;20028;-85
2021/07/03 21:19:21;;;;;;;4.13;3.72;;;;;;;;;;10590478;28;20202;-85
2021/07/03 21:24:28;;;;;;;4.45;3.50;;;;;;;;;;10588544;28;20031;-86
2021/07/03 21:29:29;;;;;;;3.50;3.20;;;;;;;;;;10570720;28;20465;-86
2021/07/03 21:34:30;;;;;;;4.45;4.00;;;;;;;;;;10571176;28;20118;-86
2021/07/03 21:39:31;;;;;;;3.65;3.28;;;;;;;;;;10568448;28;20118;-86
2021/07/03 21:44:31;;;;;;;4.70;4.30;;;;;;;;;;10567159;28;20480;-87
2021/07/03 21:49:32;;;;;;;4.50;4.10;;;;;;;;;;10574378;28;20027;-86
2021/07/03 21:54:33;;;;;;;5.63;4.25;;;;;;;;;;10588777;28;20027;-85
2021/07/03 21:59:34;;;;;;;5.32;3.47;;;;;;;;;;10608044;28;20047;-86
2021/07/03 22:04:35;;;;;;;3.45;3.15;;;;;;;;;;10588877;28;20094;-85
2021/07/03 22:09:36;;;;;;;4.15;3.75;;;;;;;;;;10587203;28;20109;-86
2021/07/03 22:14:37;;;;;;;3.83;3.53;;;;;;;;;;10586860;28;20462;-86
2021/07/03 22:19:38;;;;;;;4.63;3.78;;;;;;;;;;10587201;28;20049;-85
2021/07/03 22:24:39;;;;;;;4.85;3.80;;;;;;;;;;10587904;28;20020;-86
2021/07/03 22:29:40;;;;;;;4.65;3.75;;;;;;;;;;10586206;28;20035;-85
2021/07/03 22:34:41;;;;;;;4.13;3.75;;;;;;;;;;10587340;28;20027;-86
2021/07/03 22:39:42;;;;;;;4.10;3.70;;;;;;;;;;10586509;28;20031;-86
2021/07/03 22:44:43;;;;;;;4.07;3.72;;;;;;;;;;10579252;28;20023;-86
2021/07/03 22:49:44;;;;;;;3.72;3.42;;;;;;;;;;10574722;28;20011;-86
2021/07/03 22:54:45;;;;;;;3.97;3.58;;;;;;;;;;10569476;28;20027;-86
2021/07/03 22:59:46;;;;;;;4.97;3.60;;;;;;;;;;10577648;28;20083;-86
2021/07/03 23:04:47;;;;;;;5.65;4.97;;;;;;;;;;10582463;28;20487;-86
2021/07/03 23:09:48;;;;;;;4.53;4.13;;;;;;;;;;10583329;28;20099;-85
2021/07/03 23:14:49;;;;;;;4.60;4.20;;;;;;;;;;10583797;28;20463;-85
2021/07/03 23:19:50;;;;;;;4.50;4.10;;;;;;;;;;10584316;28;20473;-85
2021/07/03 23:24:50;;;;;;;4.18;3.78;;;;;;;;;;10584253;28;20027;-86
2021/07/03 23:29:51;;;;;;;4.75;4.28;;;;;;;;;;10584693;28;20038;-87
2021/07/03 23:34:52;;;;;;;4.40;4.00;;;;;;;;;;10588843;28;20122;-87
2021/07/03 23:39:53;;;;;;;4.78;4.38;;;;;;;;;;10583977;28;20035;-87
2021/07/03 23:44:55;;;;;;;4.75;4.32;;;;;;;;;;10581360;28;20030;-87
2021/07/03 23:49:56;;;;;;;4.57;4.18;;;;;;;;;;10571090;28;20015;-87
2021/07/03 23:54:57;;;;;;;4.53;4.13;;;;;;;;;;10570815;28;20049;-87
2021/07/03 23:59:58;;;;;;;4.93;4.43;;;;;;;;;;10575572;28;20031;-87
